Time;durP1;ratioP1;P1;durP2;ratioP2;P2;SDS_P1;SDS_P2;PMS_P1;PMS_P2;Temp;Humidity;BMP_temperature;BMP_pressure;BME280_temperature;BME280_humidity;BME280_pressure;Samples;Min_cycle;Max_cycle;Signal;HPM_P1;HPM_P2
2023/04/24 00:00:17;;;;;;;;;;;13.30;62.40;;;9.09;98.22;94729.06;4993579;28;20008;-51
2023/04/24 00:02:46;;;;;;;;;;;13.30;62.40;;;9.10;98.53;94726.13;4992534;28;19913;-50
2023/04/24 00:05:17;;;;;;;;;;;13.30;62.30;;;9.07;98.91;94726.69;4993237;28;19917;-48
2023/04/24 00:07:44;;;;;;;;;;;13.30;63.10;;;9.01;98.05;94722.47;4975979;28;20324;-52
2023/04/24 00:10:11;;;;;;;;;;;13.30;63.10;;;9.06;98.82;94724.28;5007277;23;19925;-49
2023/04/24 00:12:38;;;;;;;;;;;13.20;62.20;;;9.00;98.32;94724.34;5012813;28;20287;-50
2023/04/24 00:15:05;;;;;;;;;;;13.20;62.30;;;9.00;98.83;94726.22;5007359;28;19963;-51
2023/04/24 00:17:31;;;;;;;;;;;13.20;62.30;;;9.02;99.20;94724.06;4993157;28;19913;-52
2023/04/24 00:20:00;;;;;;;;;;;13.20;62.30;;;9.01;99.66;94728.56;4993075;28;19916;-50
2023/04/24 00:22:26;;;;;;;;;;;13.20;62.30;;;8.89;98.70;94725.47;4992106;28;19910;-54
2023/04/24 00:24:52;;;;;;;;;;;13.10;62.30;;;8.89;99.90;94733.41;4992809;28;19914;-51
2023/04/24 00:27:18;;;;;;;;;;;13.10;62.50;;;8.91;100.00;94727.84;4992498;28;19916;-49
2023/04/24 00:29:43;;;;;;;;;;;13.00;62.50;;;8.87;99.80;94724.13;4993074;28;20454;-51
2023/04/24 00:32:09;;;;;;;;;;;13.00;62.50;;;8.77;98.90;94728.47;4993212;28;19909;-49
2023/04/24 00:34:35;;;;;;;;;;;13.00;62.80;;;8.81;99.40;94728.72;4992436;28;19910;-49
2023/04/24 00:37:01;;;;;;;;;;;12.90;62.80;;;8.73;98.94;94723.97;4992858;28;19909;-49
2023/04/24 00:39:27;;;;;;;;;;;12.90;62.90;;;8.75;99.62;94721.84;4992010;28;19940;-51
2023/04/24 00:41:53;;;;;;;;;;;12.80;63.60;;;8.76;99.65;94718.09;4992747;28;20368;-49
2023/04/24 00:44:19;;;;;;;;;;;12.80;62.90;;;8.70;100.00;94721.84;4991689;28;19909;-50
2023/04/24 00:46:47;;;;;;;;;;;12.70;62.90;;;8.64;99.54;94715.75;4991911;28;20352;-49
2023/04/24 00:49:14;;;;;;;;;;;12.70;63.00;;;8.63;99.81;94719.50;4992733;28;20000;-50
2023/04/24 00:51:40;;;;;;;;;;;12.70;63.00;;;8.62;100.00;94719.75;4991557;28;19909;-50
2023/04/24 00:54:06;;;;;;;;;;;12.70;63.10;;;8.59;100.00;94721.13;4992612;28;20272;-49
2023/04/24 00:56:32;;;;;;;;;;;12.60;63.90;;;8.56;100.00;94719.78;4991821;28;19909;-49
2023/04/24 00:58:58;;;;;;;;;;;12.70;63.30;;;8.57;100.00;94715.28;4992567;28;20008;-49
2023/04/24 01:01:24;;;;;;;;;;;12.60;63.20;;;8.58;100.00;94714.19;4991454;28;19913;-49
2023/04/24 01:03:52;;;;;;;;;;;12.60;63.30;;;8.58;100.00;94712.31;4991886;28;20415;-49
2023/04/24 01:06:20;;;;;;;;;;;12.60;63.30;;;8.58;100.00;94714.97;4991265;28;19910;-49
2023/04/24 01:08:47;;;;;;;;;;;12.60;63.30;;;8.57;100.00;94717.94;4990611;28;19925;-49
2023/04/24 01:11:14;;;;;;;;;;;12.60;63.30;;;8.54;100.00;94711.28;4975253;28;20438;-50
2023/04/24 01:13:40;;;;;;;;;;;12.70;63.30;;;8.49;99.64;94715.81;4975120;28;19999;-50
2023/04/24 01:16:06;;;;;;;;;;;12.70;63.30;;;8.53;100.00;94714.25;4991620;28;19949;-49
2023/04/24 01:18:32;;;;;;;;;;;12.60;63.30;;;8.51;98.56;94721.66;4992485;28;19943;-53
2023/04/24 01:21:03;;;;;;;;;;;12.60;63.30;;;8.52;98.59;94712.63;4991580;28;19923;-50
2023/04/24 01:23:29;;;;;;;;;;;12.70;63.40;;;8.51;97.69;94717.16;4992527;28;19963;-52
2023/04/24 01:25:54;;;;;;;;;;;12.70;63.50;;;8.55;98.83;94715.56;4992345;28;20318;-49
2023/04/24 01:28:21;;;;;;;;;;;12.70;63.50;;;8.53;98.14;94720.34;4991222;28;20514;-50
2023/04/24 01:30:47;;;;;;;;;;;12.70;63.40;;;8.51;96.21;94721.66;4992233;28;19916;-49
2023/04/24 01:33:13;;;;;;;;;;;12.70;63.50;;;8.54;95.90;94715.81;4991338;28;19917;-50
2023/04/24 01:35:40;;;;;;;;;;;12.70;63.60;;;8.55;96.25;94725.34;4995040;28;19959;-53
2023/04/24 01:38:06;;;;;;;;;;;12.70;63.50;;;8.57;96.68;94728.53;4996306;28;19916;-49
2023/04/24 01:40:32;;;;;;;;;;;12.70;64.30;;;8.55;96.21;94728.00;4995520;28;19913;-52
2023/04/24 01:42:58;;;;;;;;;;;12.70;63.40;;;8.53;95.13;94723.00;4992589;28;19936;-51
2023/04/24 01:45:25;;;;;;;;;;;12.70;63.40;;;8.49;95.52;94727.25;4994552;28;20044;-51
2023/04/24 01:47:50;;;;;;;;;;;12.60;63.30;;;8.42;93.08;94723.28;4996227;28;20299;-50
2023/04/24 01:50:17;;;;;;;;;;;12.60;63.30;;;8.45;94.71;94720.88;4996433;28;19909;-50
2023/04/24 01:52:44;;;;;;;;;;;12.60;63.30;;;8.44;94.39;94724.63;4995321;28;19952;-49
2023/04/24 01:55:10;;;;;;;;;;;12.60;63.30;;;8.42;94.99;94725.94;4996070;28;19951;-50
2023/04/24 01:57:36;;;;;;;;;;;12.60;63.30;;;8.40;95.60;94726.22;4995024;28;19910;-49
2023/04/24 02:00:04;;;;;;;;;;;12.60;63.30;;;8.34;95.74;94738.69;4995753;28;19909;-51
2023/04/24 02:02:30;;;;;;;;;;;12.60;63.20;;;8.31;95.86;94730.47;4995517;28;19909;-53
2023/04/24 02:04:57;;;;;;;;;;;12.50;63.20;;;8.30;96.41;94740.31;4978232;28;20019;-50
2023/04/24 02:07:23;;;;;;;;;;;12.50;63.20;;;8.34;96.53;94725.41;4995869;28;19909;-51
2023/04/24 02:09:49;;;;;;;;;;;12.50;63.20;;;8.30;96.97;94723.56;4994743;28;19917;-52
2023/04/24 02:12:17;;;;;;;;;;;12.40;63.20;;;8.20;96.35;94723.59;4995850;28;19945;-52
2023/04/24 02:14:44;;;;;;;;;;;12.40;63.20;;;8.21;97.32;94731.31;4994958;28;19909;-49
2023/04/24 02:17:12;;;;;;;;;;;12.40;63.30;;;8.21;97.53;94730.50;4995466;28;19969;-50
2023/04/24 02:19:37;;;;;;;;;;;12.40;63.30;;;8.18;97.53;94731.03;4995583;28;20019;-49
2023/04/24 02:22:03;;;;;;;;;;;12.30;63.40;;;8.17;97.50;94719.63;4994777;28;19996;-50
2023/04/24 02:24:29;;;;;;;;;;;12.30;63.50;;;8.18;97.81;94721.22;4996008;28;19974;-51
2023/04/24 02:26:55;;;;;;;;;;;12.30;63.50;;;8.11;96.55;94728.66;4994742;28;19913;-49
2023/04/24 02:29:21;;;;;;;;;;;12.30;63.50;;;8.13;97.58;94718.59;4995116;28;19933;-51
2023/04/24 02:31:47;;;;;;;;;;;12.30;63.60;;;8.08;96.29;94723.88;4994957;28;20297;-49
2023/04/24 02:34:12;;;;;;;;;;;12.30;63.60;;;8.09;96.98;94723.63;4994480;28;19913;-49
2023/04/24 02:36:38;;;;;;;;;;;12.30;63.60;;;8.09;97.04;94722.84;4995399;28;19920;-50
2023/04/24 02:39:04;;;;;;;;;;;12.20;63.60;;;8.09;97.42;94723.63;4994340;28;19913;-53
2023/04/24 02:41:31;;;;;;;;;;;12.20;63.70;;;8.08;97.85;94722.06;4995139;28;19917;-50
2023/04/24 02:43:58;;;;;;;;;;;12.20;63.70;;;8.06;98.37;94726.03;4995183;28;20012;-49
2023/04/24 02:46:25;;;;;;;;;;;12.20;63.70;;;8.05;98.55;94721.78;4993256;28;20315;-51
2023/04/24 02:48:52;;;;;;;;;;;12.20;63.70;;;8.01;98.75;94721.53;4995136;28;19909;-49
2023/04/24 02:51:17;;;;;;;;;;;12.20;63.70;;;7.96;98.60;94724.22;4994065;28;19909;-49
2023/04/24 02:53:44;;;;;;;;;;;12.10;63.70;;;7.98;99.40;94715.97;4994496;28;19915;-49
2023/04/24 02:56:12;;;;;;;;;;;12.10;63.80;;;7.94;98.18;94714.94;4994822;28;19967;-49
2023/04/24 02:58:38;;;;;;;;;;;12.10;63.80;;;7.95;98.14;94708.53;4993912;28;19909;-53
2023/04/24 03:01:04;;;;;;;;;;;12.10;63.90;;;7.93;96.96;94714.13;4994565;28;19952;-50
2023/04/24 03:03:30;;;;;;;;;;;12.10;64.00;;;7.92;97.01;94701.13;4994094;28;19916;-51
2023/04/24 03:05:57;;;;;;;;;;;12.10;64.00;;;7.94;96.41;94704.31;4994649;28;20276;-49
2023/04/24 03:08:23;;;;;;;;;;;12.10;64.10;;;7.95;96.32;94698.72;4994350;28;19910;-50
2023/04/24 03:10:49;;;;;;;;;;;12.10;64.10;;;7.93;95.74;94700.88;4993708;28;19932;-49
2023/04/24 03:13:16;;;;;;;;;;;12.10;64.20;;;7.97;95.56;94701.13;4994413;28;19932;-49
2023/04/24 03:15:42;;;;;;;;;;;12.10;64.30;;;8.01;95.70;94700.31;4993428;28;19909;-50
2023/04/24 03:18:08;;;;;;;;;;;12.10;64.20;;;8.04;95.90;94698.97;4994549;28;19936;-49
2023/04/24 03:20:33;;;;;;;;;;;12.10;64.20;;;7.99;95.24;94691.84;4993307;28;19921;-49
2023/04/24 03:22:59;;;;;;;;;;;12.20;64.10;;;8.02;96.06;94703.75;4994249;28;19909;-49
2023/04/24 03:25:25;;;;;;;;;;;12.20;64.10;;;8.01;95.36;94699.50;4994224;28;19909;-51
2023/04/24 03:27:51;;;;;;;;;;;12.20;64.10;;;8.01;95.50;94699.50;4993102;28;19962;-50
2023/04/24 03:30:17;;;;;;;;;;;12.20;64.00;;;8.03;95.04;94700.06;4994034;28;19913;-50
2023/04/24 03:32:43;;;;;;;;;;;12.20;64.10;;;8.06;94.82;94705.59;4993406;28;19910;-50
2023/04/24 03:35:09;;;;;;;;;;;12.20;64.00;;;8.03;94.62;94703.50;4994124;28;19915;-50
2023/04/24 03:37:34;;;;;;;;;;;12.20;64.00;;;8.05;94.54;94701.38;4993887;28;19979;-50
2023/04/24 03:40:02;;;;;;;;;;;12.20;64.00;;;8.06;94.59;94704.81;4993098;28;19913;-49
2023/04/24 03:42:27;;;;;;;;;;;12.20;63.90;;;8.03;93.43;94700.06;4993918;28;19955;-50
2023/04/24 03:44:53;;;;;;;;;;;12.20;63.90;;;7.98;93.38;94695.53;4992941;28;19917;-50
2023/04/24 03:47:19;;;;;;;;;;;12.20;63.90;;;8.00;92.70;94696.06;4993789;28;19909;-50
2023/04/24 03:49:45;;;;;;;;;;;12.20;63.90;;;8.05;93.07;94697.91;4993816;28;19909;-54
2023/04/24 03:52:10;;;;;;;;;;;12.20;63.90;;;8.05;93.04;94705.88;4992735;28;20372;-54
2023/04/24 03:54:36;;;;;;;;;;;12.20;63.80;;;8.04;92.55;94699.78;4993777;28;19915;-55
2023/04/24 03:57:03;;;;;;;;;;;12.20;63.80;;;8.06;93.12;94696.88;4992584;28;19916;-54
2023/04/24 03:59:29;;;;;;;;;;;12.20;63.80;;;8.07;93.04;94699.22;4993636;28;20375;-54
2023/04/24 04:01:56;;;;;;;;;;;12.20;63.80;;;8.05;91.82;94693.41;4986215;28;26624;-55
2023/04/24 04:04:22;;;;;;;;;;;12.30;63.80;;;8.08;91.59;94690.22;4992307;28;19999;-55
2023/04/24 04:06:48;;;;;;;;;;;12.30;63.80;;;8.08;91.65;94694.72;4993061;28;19910;-55
2023/04/24 04:09:15;;;;;;;;;;;12.30;63.80;;;8.08;91.70;94702.66;4992448;28;19940;-57
2023/04/24 04:11:40;;;;;;;;;;;12.30;63.70;;;8.07;91.55;94698.44;4993263;28;20299;-54
2023/04/24 04:14:06;;;;;;;;;;;12.30;63.70;;;8.01;90.97;94696.88;4993327;28;19914;-54
2023/04/24 04:16:32;;;;;;;;;;;12.20;63.60;;;8.02;90.96;94693.13;4990127;28;20280;-54
2023/04/24 04:18:58;;;;;;;;;;;12.20;63.60;;;8.08;91.93;94702.66;4993142;28;19909;-55
2023/04/24 04:21:24;;;;;;;;;;;12.30;63.60;;;8.03;90.48;94706.16;4992321;28;19913;-55
2023/04/24 04:23:50;;;;;;;;;;;12.30;63.60;;;8.08;90.44;94705.31;4993302;28;19916;-52
2023/04/24 04:26:16;;;;;;;;;;;12.30;63.70;;;8.08;90.24;94716.75;4993109;28;19914;-55
2023/04/24 04:28:41;;;;;;;;;;;12.30;63.60;;;8.11;90.34;94713.53;4992077;28;20035;-52
2023/04/24 04:31:07;;;;;;;;;;;12.30;63.60;;;8.11;90.52;94724.13;4993020;28;20275;-54
2023/04/24 04:33:33;;;;;;;;;;;12.30;63.60;;;8.11;89.97;94726.78;4992219;28;19916;-53
2023/04/24 04:35:59;;;;;;;;;;;12.40;63.60;;;8.14;89.68;94725.47;4992991;28;19909;-56
2023/04/24 04:38:29;;;;;;;;;;;12.30;63.50;;;8.18;90.26;94731.84;4992794;28;19909;-52
2023/04/24 04:40:59;;;;;;;;;;;12.30;63.40;;;8.20;90.01;94736.88;4990727;28;20283;-53
2023/04/24 04:43:25;;;;;;;;;;;12.40;63.50;;;8.21;90.09;94746.41;4993090;28;20352;-54
2023/04/24 04:45:52;;;;;;;;;;;12.40;63.40;;;8.16;90.13;94751.75;4991914;28;19913;-51
2023/04/24 04:48:18;;;;;;;;;;;12.40;63.30;;;8.16;90.73;94757.06;4992684;28;19917;-55
2023/04/24 04:50:45;;;;;;;;;;;12.40;63.30;;;8.17;92.63;94771.88;4992012;28;20347;-55
2023/04/24 04:53:10;;;;;;;;;;;12.40;63.20;;;8.15;93.30;94780.13;4992784;28;19944;-53
2023/04/24 04:55:37;;;;;;;;;;;12.40;63.20;;;8.04;93.55;94778.53;4992427;28;19909;-50
2023/04/24 04:58:03;;;;;;;;;;;12.40;63.20;;;7.99;94.97;94786.50;4991887;28;19909;-54
2023/04/24 05:00:33;;;;;;;;;;;12.30;63.20;;;7.96;95.81;94789.69;4992342;28;20011;-55
2023/04/24 05:02:59;;;;;;;;;;;12.40;63.20;;;7.90;96.33;94804.81;4991563;28;19917;-54
2023/04/24 05:05:25;;;;;;;;;;;12.30;63.10;;;7.86;97.56;94803.75;4992743;28;20448;-55
2023/04/24 05:07:51;;;;;;;;;;;12.30;63.30;;;7.80;98.27;94795.03;4992400;28;19991;-55
2023/04/24 05:10:17;;;;;;;;;;;12.20;63.30;;;7.80;98.90;94810.13;4990531;28;19917;-52
2023/04/24 05:12:43;;;;;;;;;;;12.20;63.30;;;7.76;99.45;94798.47;4992380;28;20009;-54
2023/04/24 05:15:09;;;;;;;;;;;12.20;63.40;;;7.77;100.00;94813.28;4991589;28;19952;-53
2023/04/24 05:17:36;;;;;;;;;;;12.20;63.50;;;7.72;100.00;94819.41;4992494;28;19909;-53
2023/04/24 05:20:05;;;;;;;;;;;12.10;63.50;;;7.65;100.00;94810.94;4992276;28;20339;-54
2023/04/24 05:22:31;;;;;;;;;;;12.10;63.60;;;7.67;100.00;94824.69;4991442;28;20587;-52
2023/04/24 05:24:57;;;;;;;;;;;12.10;63.60;;;7.63;100.00;94821.00;4992521;28;20368;-54
2023/04/24 05:27:24;;;;;;;;;;;12.10;63.60;;;7.60;100.00;94824.97;4991551;28;20008;-53
2023/04/24 05:29:50;;;;;;;;;;;12.00;63.60;;;7.60;100.00;94826.81;4975131;28;20000;-50
2023/04/24 05:32:16;;;;;;;;;;;12.00;63.70;;;7.62;100.00;94830.00;4992305;28;19963;-55
2023/04/24 05:34:42;;;;;;;;;;;12.00;63.70;;;7.55;100.00;94832.09;4991426;28;19909;-50
2023/04/24 05:37:09;;;;;;;;;;;12.00;63.80;;;7.57;100.00;94836.09;4992050;28;19910;-53
2023/04/24 05:39:36;;;;;;;;;;;12.00;64.00;;;7.56;100.00;94841.66;4966497;28;19960;-52
2023/04/24 05:42:03;;;;;;;;;;;12.00;64.00;;;7.58;100.00;94839.53;4972728;28;20408;-52
2023/04/24 05:44:29;;;;;;;;;;;12.00;64.00;;;7.53;100.00;94850.13;4955342;28;20037;-54
2023/04/24 05:46:55;;;;;;;;;;;12.00;64.10;;;7.49;100.00;94849.88;4990949;28;19913;-54
2023/04/24 05:49:21;;;;;;;;;;;12.00;64.20;;;7.55;100.00;94850.66;4992164;28;19909;-55
2023/04/24 05:51:47;;;;;;;;;;;12.00;64.30;;;7.59;100.00;94847.22;4988648;28;20366;-50
2023/04/24 05:54:13;;;;;;;;;;;12.10;64.30;;;7.61;100.00;94855.69;4991169;28;20000;-49
2023/04/24 05:56:39;;;;;;;;;;;12.10;64.30;;;7.65;100.00;94858.63;4991515;28;19932;-53
2023/04/24 05:59:05;;;;;;;;;;;12.10;64.30;;;7.68;100.00;94866.06;4992578;28;19913;-54
2023/04/24 06:01:31;;;;;;;;;;;12.10;64.30;;;7.67;100.00;94869.75;4992692;28;19920;-56
2023/04/24 06:03:57;;;;;;;;;;;12.20;64.40;;;7.71;100.00;94878.78;4990984;28;19909;-54
2023/04/24 06:06:24;;;;;;;;;;;12.30;64.40;;;7.72;100.00;94880.38;4993960;28;20380;-52
2023/04/24 06:08:50;;;;;;;;;;;12.40;64.30;;;7.83;100.00;94867.91;4991271;28;19982;-55
2023/04/24 06:13:51;;;;;;;;;;;12.70;64.00;;;8.06;98.56;94870.06;4987667;28;19921;-56
2023/04/24 06:16:17;;;;;;;;;;;12.90;63.80;;;8.19;98.46;94870.59;4991138;28;19957;-58
2023/04/24 06:18:43;;;;;;;;;;;13.00;63.70;;;8.26;97.12;94865.81;4991147;28;19944;-55
2023/04/24 06:21:09;;;;;;;;;;;13.20;63.70;;;8.28;96.08;94866.34;4992394;28;20269;-57
2023/04/24 06:23:34;;;;;;;;;;;13.30;63.40;;;8.37;95.36;94870.03;4995439;28;19913;-57
2023/04/24 06:26:00;;;;;;;;;;;13.40;63.30;;;8.52;96.21;94875.38;4994265;28;20434;-57
2023/04/24 06:28:26;;;;;;;;;;;13.50;62.90;;;8.56;95.16;94875.63;4994441;28;19948;-56
2023/04/24 06:30:52;;;;;;;;;;;13.60;62.90;;;8.50;93.99;94872.16;4977351;28;19947;-58
2023/04/24 06:33:18;;;;;;;;;;;13.70;62.70;;;8.57;93.61;94878.00;4994871;28;19910;-54
2023/04/24 06:35:43;;;;;;;;;;;13.70;62.40;;;8.60;92.54;94870.56;4916370;28;20491;-58
2023/04/24 06:38:09;;;;;;;;;;;13.80;62.30;;;8.69;93.20;94879.56;4994044;28;19944;-56
2023/04/24 06:40:35;;;;;;;;;;;13.90;62.00;;;8.79;92.71;94869.72;4973291;28;19945;-58
2023/04/24 06:43:02;;;;;;;;;;;14.00;61.80;;;8.90;92.01;94872.31;4975298;28;19910;-58
2023/04/24 06:45:29;;;;;;;;;;;14.30;61.50;;;9.14;91.33;94875.16;4999603;28;19932;-58
2023/04/24 06:47:56;;;;;;;;;;;14.50;61.30;;;9.36;90.24;94861.50;4977780;28;19913;-56
2023/04/24 06:50:21;;;;;;;;;;;14.80;61.00;;;9.45;88.28;94873.94;4995427;28;19936;-57
2023/04/24 06:52:47;;;;;;;;;;;14.90;60.80;;;9.38;89.27;94885.97;4993799;28;19913;-57
2023/04/24 06:55:15;;;;;;;;;;;14.80;60.60;;;9.37;90.99;94882.50;4992038;28;19910;-55
2023/04/24 06:57:40;;;;;;;;;;;14.80;60.60;;;9.29;91.02;94883.06;4975841;28;20299;-58
2023/04/24 07:00:09;;;;;;;;;;;14.70;60.60;;;9.20;92.22;94890.03;4994461;28;19909;-58
2023/04/24 07:02:34;;;;;;;;;;;14.60;60.50;;;9.07;92.90;94886.09;4992692;28;19936;-55
2023/04/24 07:05:01;;;;;;;;;;;14.50;60.60;;;9.16;93.86;94883.66;4976797;28;19909;-55
2023/04/24 07:07:27;;;;;;;;;;;14.40;60.60;;;9.14;94.87;94889.25;4994465;28;20354;-57
2023/04/24 07:09:53;;;;;;;;;;;14.30;60.70;;;9.17;94.90;94879.94;4992218;28;19909;-56
2023/04/24 07:12:21;;;;;;;;;;;14.20;60.80;;;9.15;95.26;94890.84;4993368;28;19917;-57
2023/04/24 07:14:47;;;;;;;;;;;14.20;60.90;;;9.06;94.33;94894.31;4977123;28;20284;-58
2023/04/24 07:17:13;;;;;;;;;;;14.10;60.90;;;9.09;93.36;94880.50;4989891;28;19913;-58
2023/04/24 07:19:39;;;;;;;;;;;14.20;60.90;;;9.27;94.08;94882.53;4974600;28;20231;-57
2023/04/24 07:22:05;;;;;;;;;;;14.30;60.80;;;9.45;93.05;94881.94;4985500;28;19928;-58
2023/04/24 07:24:32;;;;;;;;;;;14.50;60.90;;;9.55;92.34;94883.72;4993933;28;19917;-58
2023/04/24 07:26:59;;;;;;;;;;;14.60;60.80;;;9.68;91.88;94879.66;4995690;28;20016;-58
2023/04/24 07:29:25;;;;;;;;;;;14.70;60.80;;;9.75;90.58;94887.38;5013283;28;20338;-57
2023/04/24 07:31:50;;;;;;;;;;;14.90;60.80;;;10.01;90.76;94888.78;4978988;28;19909;-58
2023/04/24 07:34:16;;;;;;;;;;;15.30;60.40;;;10.35;88.88;94896.78;4990995;28;20009;-58
2023/04/24 07:36:42;;;;;;;;;;;15.70;60.30;;;10.40;86.58;94901.25;4993834;28;19909;-56
2023/04/24 07:39:08;;;;;;;;;;;15.90;59.80;;;10.61;87.00;94913.31;4992570;28;19913;-57
2023/04/24 07:41:34;;;;;;;;;;;16.00;59.70;;;10.70;85.51;94910.06;4993579;28;19913;-54
2023/04/24 07:44:00;;;;;;;;;;;16.10;59.60;;;10.72;83.99;94915.88;4993544;28;19916;-56
2023/04/24 07:46:29;;;;;;;;;;;16.10;59.50;;;10.71;83.50;94912.44;5001583;28;19910;-57
2023/04/24 07:48:55;;;;;;;;;;;16.20;59.20;;;10.31;80.15;94911.72;4993537;28;19909;-58
2023/04/24 07:51:21;;;;;;;;;;;16.30;58.70;;;10.30;82.78;94922.66;4975247;28;20426;-58
2023/04/24 07:53:47;;;;;;;;;;;16.30;58.20;;;10.49;83.43;94922.75;4993326;28;19909;-58
2023/04/24 07:56:13;;;;;;;;;;;16.30;58.10;;;10.56;83.09;94920.56;4993206;28;19932;-56
2023/04/24 07:58:39;;;;;;;;;;;16.20;58.10;;;10.45;80.99;94935.03;4992363;28;19941;-59
2023/04/24 08:01:04;;;;;;;;;;;16.10;58.10;;;9.89;77.73;94949.50;4992937;28;19971;-58
2023/04/24 08:03:30;;;;;;;;;;;16.00;57.90;;;9.55;77.88;94955.53;4992355;28;19909;-58
2023/04/24 08:05:56;;;;;;;;;;;15.70;57.50;;;9.02;78.25;94948.03;4976082;28;19992;-59
2023/04/24 08:08:22;;;;;;;;;;;15.40;57.30;;;8.52;81.21;94955.00;4975525;28;20360;-58
2023/04/24 08:10:49;;;;;;;;;;;15.10;57.00;;;8.29;82.04;94955.47;4974473;28;19943;-57
2023/04/24 08:13:15;;;;;;;;;;;14.80;56.80;;;8.23;82.66;94986.53;4992756;28;19921;-59
2023/04/24 08:15:41;;;;;;;;;;;14.70;56.90;;;8.15;85.59;94997.66;4991861;28;19935;-58
2023/04/24 08:18:07;;;;;;;;;;;14.40;56.90;;;7.99;83.92;95006.63;4975640;28;20318;-56
2023/04/24 08:20:33;;;;;;;;;;;14.20;57.10;;;7.88;87.62;95014.56;4975481;28;19914;-55
2023/04/24 08:22:59;;;;;;;;;;;14.00;57.20;;;7.67;87.98;95006.81;5010456;28;20245;-59
2023/04/24 08:25:24;;;;;;;;;;;13.70;57.30;;;7.55;88.27;95012.31;5012536;28;19999;-57
2023/04/24 08:27:51;;;;;;;;;;;13.50;57.60;;;7.55;90.65;95023.75;5001440;28;19916;-59
2023/04/24 08:30:18;;;;;;;;;;;13.20;57.80;;;7.36;89.02;95022.56;4992697;28;19917;-57
2023/04/24 08:32:44;;;;;;;;;;;13.10;58.10;;;7.35;89.93;95020.97;4991483;28;19939;-58
2023/04/24 08:35:09;;;;;;;;;;;12.80;58.30;;;7.24;91.35;95020.16;4992709;28;19915;-58
2023/04/24 08:37:36;;;;;;;;;;;12.60;58.50;;;7.17;91.76;95019.56;4975422;28;20377;-57
2023/04/24 08:40:16;;;;;;;;;;;12.40;58.70;;;7.20;93.04;95024.34;4991545;28;20000;-54
2023/04/24 08:42:44;;;;;;;;;;;12.30;59.00;;;7.12;92.65;95025.63;4992286;28;19913;-57
2023/04/24 08:45:12;;;;;;;;;;;12.30;59.20;;;7.14;92.18;95022.72;4995420;28;19908;-53
2023/04/24 08:47:42;;;;;;;;;;;12.30;59.90;;;7.12;88.58;95030.94;4996331;28;19960;-52
2023/04/24 08:50:10;;;;;;;;;;;12.40;59.30;;;7.27;91.77;95029.41;4992376;28;19910;-54
2023/04/24 08:52:36;;;;;;;;;;;12.60;59.20;;;7.52;90.92;95031.38;4990858;28;20399;-58
2023/04/24 08:55:02;;;;;;;;;;;12.90;59.70;;;7.75;90.99;95032.84;4992396;28;20414;-58
2023/04/24 08:57:30;;;;;;;;;;;13.20;59.10;;;8.01;89.21;95023.88;4983742;28;19914;-55
2023/04/24 08:59:58;;;;;;;;;;;13.50;59.00;;;8.22;88.84;95024.72;4972959;28;20560;-58
2023/04/24 09:02:25;;;;;;;;;;;13.80;58.80;;;8.43;89.01;95038.88;4955439;28;19914;-58
2023/04/24 09:04:52;;;;;;;;;;;14.10;58.60;;;8.77;90.00;95038.34;4972273;28;19909;-58
2023/04/24 09:07:22;;;;;;;;;;;14.60;58.40;;;9.12;85.51;95037.53;4990935;28;20323;-56
2023/04/24 09:09:51;;;;;;;;;;;15.10;58.20;;;9.35;83.56;95030.84;4966784;28;19956;-58
2023/04/24 09:12:18;;;;;;;;;;;15.40;58.00;;;9.60;83.25;95034.50;4955818;28;20322;-57
2023/04/24 09:14:45;;;;;;;;;;;15.70;57.80;;;9.79;80.00;95037.34;4956113;28;20377;-58
2023/04/24 09:17:11;;;;;;;;;;;15.90;57.60;;;10.01;79.95;95037.78;4980660;28;20506;-58
2023/04/24 09:19:38;;;;;;;;;;;16.10;57.50;;;10.18;76.92;95035.56;4972730;28;20380;-58
2023/04/24 09:22:08;;;;;;;;;;;16.30;57.20;;;10.68;75.64;95034.72;4972033;28;20020;-59
2023/04/24 09:24:35;;;;;;;;;;;16.80;56.80;;;10.97;74.67;95040.06;4972545;28;20426;-59
2023/04/24 09:27:01;;;;;;;;;;;17.30;56.40;;;11.55;73.31;95035.50;4957991;28;19909;-58
2023/04/24 09:29:27;;;;;;;;;;;17.90;56.30;;;11.69;68.82;95026.81;4992049;28;19987;-58
2023/04/24 09:31:53;;;;;;;;;;;18.30;55.90;;;11.64;66.95;95034.91;4991971;28;19955;-55
2023/04/24 09:34:27;;;;;;;;;;;18.40;55.10;;;11.31;67.00;95034.69;4988927;28;20052;-55
2023/04/24 09:36:54;;;;;;;;;;;18.40;54.40;;;11.14;66.05;95026.34;4992034;28;20398;-57
2023/04/24 09:39:20;;;;;;;;;;;18.30;53.90;;;10.96;63.57;95030.50;4991079;28;19909;-58
2023/04/24 09:41:52;;;;;;;;;;;18.20;53.60;;;10.89;64.48;95025.50;4991938;28;19921;-57
2023/04/24 09:44:22;;;;;;;;;;;18.00;53.10;;;10.77;63.65;95031.19;4992207;28;19945;-58
2023/04/24 09:46:59;;;;;;;;;;;17.80;53.00;;;10.83;65.08;95032.72;4991531;28;20435;-57
2023/04/24 09:49:30;;;;;;;;;;;17.60;52.80;;;10.59;63.50;95026.53;4975449;28;19972;-58
2023/04/24 09:52:09;;;;;;;;;;;17.30;52.30;;;10.35;63.86;95035.22;4991224;28;19909;-58
2023/04/24 09:54:36;;;;;;;;;;;16.90;52.30;;;10.38;64.61;95029.34;4991888;28;19920;-58
2023/04/24 09:57:03;;;;;;;;;;;16.70;53.10;;;10.54;69.30;95045.22;4994234;28;19913;-57
2023/04/24 09:59:30;;;;;;;;;;;16.60;52.60;;;10.74;66.82;95034.41;4995706;28;19909;-56
2023/04/24 10:01:58;;;;;;;;;;;16.80;52.80;;;10.98;65.54;95033.69;4977603;28;19913;-55
2023/04/24 10:04:27;;;;;;;;;;;17.20;52.40;;;11.08;66.34;95033.59;4994762;28;19910;-59
2023/04/24 10:06:56;;;;;;;;;;;17.40;52.80;;;11.40;64.99;95041.00;4995531;28;19910;-54
2023/04/24 10:09:25;;;;;;;;;;;17.70;51.80;;;11.89;64.50;95045.31;4992997;28;19910;-58
2023/04/24 10:11:54;;;;;;;;;;;18.20;51.70;;;12.32;61.70;95044.50;4994156;28;19917;-57
2023/04/24 10:14:23;;;;;;;;;;;18.80;51.40;;;12.86;61.97;95038.63;4978165;28;20011;-59
2023/04/24 10:16:52;;;;;;;;;;;19.50;50.50;;;13.19;59.56;95038.59;4974076;28;20013;-59
2023/04/24 10:19:18;;;;;;;;;;;20.30;49.90;;;13.53;59.27;95032.16;4975875;28;19917;-59
2023/04/24 10:21:47;;;;;;;;;;;20.80;49.20;;;14.18;58.21;95031.16;4983892;28;19914;-57
2023/04/24 10:24:20;;;;;;;;;;;21.20;49.20;;;13.94;54.21;95034.84;4995234;28;19909;-58
2023/04/24 10:26:48;;;;;;;;;;;21.60;48.10;;;13.97;56.23;95028.88;4993703;28;19910;-58
2023/04/24 10:29:21;;;;;;;;;;;21.80;46.90;;;14.39;54.53;95010.06;4978015;28;19910;-59
2023/04/24 10:31:47;;;;;;;;;;;22.10;46.80;;;14.77;54.84;95021.28;4978352;28;20288;-58
2023/04/24 10:34:17;;;;;;;;;;;22.50;46.80;;;14.74;54.46;95028.03;5001589;28;19917;-59
2023/04/24 10:36:50;;;;;;;;;;;22.70;46.50;;;14.70;51.60;95037.00;4958662;28;20372;-58
2023/04/24 10:39:17;;;;;;;;;;;22.70;46.50;;;14.44;53.21;95044.78;4968111;28;20432;-55
2023/04/24 10:41:43;;;;;;;;;;;22.50;45.80;;;15.02;51.10;95047.50;5014620;28;19921;-58
2023/04/24 10:44:13;;;;;;;;;;;22.60;45.20;;;15.63;50.16;95055.88;4996825;28;20333;-58
2023/04/24 10:46:43;;;;;;;;;;;23.20;44.80;;;15.52;49.80;95041.16;5013086;28;20348;-58
2023/04/24 10:49:10;;;;;;;;;;;23.50;43.80;;;15.23;49.73;95041.59;5014409;28;20398;-58
2023/04/24 10:51:53;;;;;;;;;;;23.70;42.90;;;15.26;48.27;95041.81;5012886;28;19909;-59
2023/04/24 10:54:50;;;;;;;;;;;23.70;42.40;;;15.21;46.13;95031.19;5014347;28;19909;-58
2023/04/24 10:57:19;;;;;;;;;;;24.00;41.20;;;14.99;46.99;95029.31;4963663;28;19917;-57
2023/04/24 10:59:48;;;;;;;;;;;24.00;40.80;;;15.08;46.72;95037.44;4994426;28;19955;-56
2023/04/24 11:02:18;;;;;;;;;;;24.30;39.30;;;15.72;47.19;95034.47;4972609;28;19924;-55
2023/04/24 11:04:45;;;;;;;;;;;24.70;39.10;;;15.78;47.37;95035.91;4986331;28;19910;-58
2023/04/24 11:07:12;;;;;;;;;;;25.00;38.20;;;15.86;49.90;95037.84;5006664;28;20394;-58
2023/04/24 11:09:40;;;;;;;;;;;25.10;38.10;;;16.07;49.30;95048.00;5006470;28;20000;-58
2023/04/24 11:12:10;;;;;;;;;;;24.80;38.60;;;15.46;48.90;95051.22;4993857;28;20015;-57
2023/04/24 11:14:55;;;;;;;;;;;24.50;38.70;;;15.38;50.31;95054.63;4992521;28;19917;-58
2023/04/24 11:17:42;;;;;;;;;;;24.10;39.00;;;15.49;48.92;95060.56;4994372;28;20376;-58
2023/04/24 11:20:11;;;;;;;;;;;23.70;39.60;;;15.28;51.76;95054.91;4975941;28;19909;-58
2023/04/24 11:22:42;;;;;;;;;;;23.60;40.10;;;15.16;50.68;95055.47;4993239;28;19925;-58